M/V Muzaffer Ana — TCWY4 — position and weather

sailwx.info

Track history (hours):
 
Tides and Currents Weather Stations Pressure Air Temp Water Temp Dewpoint Dewpoint Depression Visibility Wind Speed Wind Dir Waves Ship Positions

M/V Muzaffer Ana

Last reported at 2017-Nov-23 18:22 UTC. Time now 2017-Nov-24 20:44 UTC.
Position N 46°18' E 030°55'.

Length 148 m; draft 7.5 m.

Type: Cargo ship. MMSI: 271040130.

Date/timePositionNaut miles runAvg speedWind from/ knotsBaromVisibWave heightAir tempDewpointWater temp
2017-Nov-23 18:22N 46°18' E 030°55'511.1
2017-Nov-23 17:56N 46°23' E 030°55'511.3
2017-Nov-23 17:29N 46°28' E 030°55'5 9.8
2017-Nov-23 16:59N 46°33' E 030°57'3310.4
2017-Nov-23 13:52N 46°36' E 031°45'3 9.5
2017-Nov-23 13:30N 46°35' E 031°49'5 9.2
2017-Nov-23 13:00N 46°34' E 031°56'5 9.5
2017-Nov-23 12:30N 46°32' E 032°02'10 9.1
2017-Nov-23 11:25N 46°33' E 032°17'  
2017-Nov-14 03:57N 46°36' E 032°36'0 0.0
2017-Nov-14 03:27N 46°36' E 032°36'0 0.0
2017-Nov-14 02:51N 46°36' E 032°36'0 0.0
2017-Nov-14 02:27N 46°36' E 032°36'0 0.0
2017-Nov-14 01:57N 46°36' E 032°36'  
Track history (hours):
 
Tides and Currents Weather Stations Pressure Air Temp Water Temp Dewpoint Dewpoint Depression Visibility Wind Speed Wind Dir Waves Ship Positions

M/V Muzaffer Ana

Last reported at 2017-Nov-23 18:22 UTC. Time now 2017-Nov-24 20:44 UTC.
Position N 46°18' E 030°55'.

Length 148 m; draft 7.5 m.

Type: Cargo ship. MMSI: 271040130.

Date/timePositionNaut miles runAvg speedWind from/ knotsBaromVisibWave heightAir tempDewpointWater temp
2017-Nov-23 18:22N 46°18' E 030°55'511.1
2017-Nov-23 17:56N 46°23' E 030°55'511.3
2017-Nov-23 17:29N 46°28' E 030°55'5 9.8
2017-Nov-23 16:59N 46°33' E 030°57'3310.4
2017-Nov-23 13:52N 46°36' E 031°45'3 9.5
2017-Nov-23 13:30N 46°35' E 031°49'5 9.2
2017-Nov-23 13:00N 46°34' E 031°56'5 9.5
2017-Nov-23 12:30N 46°32' E 032°02'10 9.1
2017-Nov-23 11:25N 46°33' E 032°17'  
2017-Nov-14 03:57N 46°36' E 032°36'0 0.0
2017-Nov-14 03:27N 46°36' E 032°36'0 0.0
2017-Nov-14 02:51N 46°36' E 032°36'0 0.0
2017-Nov-14 02:27N 46°36' E 032°36'0 0.0
2017-Nov-14 01:57N 46°36' E 032°36'  

Dump ship's entire track history